sensor_id;sensor_type;location;lat;lon;timestamp;P1;durP1;ratioP1;P2;durP2;ratioP2
69703;SDS011;56967;43.538;-5.646;2023-04-06T00:02:20;7.32;;;4.88;;
69703;SDS011;56967;43.538;-5.646;2023-04-06T00:04:45;7.68;;;4.53;;
69703;SDS011;56967;43.538;-5.646;2023-04-06T00:07:11;9.57;;;4.75;;
69703;SDS011;56967;43.538;-5.646;2023-04-06T00:09:36;8.77;;;4.43;;
69703;SDS011;56967;43.538;-5.646;2023-04-06T00:12:02;8.10;;;4.13;;
69703;SDS011;56967;43.538;-5.646;2023-04-06T00:14:27;7.22;;;4.20;;
69703;SDS011;56967;43.538;-5.646;2023-04-06T00:16:55;7.80;;;4.43;;
69703;SDS011;56967;43.538;-5.646;2023-04-06T00:19:21;8.50;;;4.28;;
69703;SDS011;56967;43.538;-5.646;2023-04-06T00:21:46;6.07;;;4.50;;
69703;SDS011;56967;43.538;-5.646;2023-04-06T00:24:12;9.65;;;4.45;;
69703;SDS011;56967;43.538;-5.646;2023-04-06T00:26:37;7.82;;;4.50;;
69703;SDS011;56967;43.538;-5.646;2023-04-06T00:29:03;5.47;;;4.10;;
69703;SDS011;56967;43.538;-5.646;2023-04-06T00:31:28;8.48;;;4.40;;
69703;SDS011;56967;43.538;-5.646;2023-04-06T00:33:54;7.75;;;4.50;;
69703;SDS011;56967;43.538;-5.646;2023-04-06T00:36:26;6.32;;;4.30;;
69703;SDS011;56967;43.538;-5.646;2023-04-06T00:38:52;7.97;;;4.60;;
69703;SDS011;56967;43.538;-5.646;2023-04-06T00:41:20;8.18;;;3.92;;
69703;SDS011;56967;43.538;-5.646;2023-04-06T00:43:46;7.75;;;4.68;;
69703;SDS011;56967;43.538;-5.646;2023-04-06T00:46:15;8.13;;;4.50;;
69703;SDS011;56967;43.538;-5.646;2023-04-06T00:48:40;6.18;;;4.38;;
69703;SDS011;56967;43.538;-5.646;2023-04-06T00:51:06;11.88;;;4.47;;
69703;SDS011;56967;43.538;-5.646;2023-04-06T00:53:31;8.38;;;4.80;;
69703;SDS011;56967;43.538;-5.646;2023-04-06T00:55:57;6.65;;;4.82;;
69703;SDS011;56967;43.538;-5.646;2023-04-06T00:58:23;8.23;;;4.40;;
69703;SDS011;56967;43.538;-5.646;2023-04-06T01:00:48;6.47;;;4.22;;
69703;SDS011;56967;43.538;-5.646;2023-04-06T01:03:14;7.22;;;4.70;;
69703;SDS011;56967;43.538;-5.646;2023-04-06T01:05:39;7.10;;;4.40;;
69703;SDS011;56967;43.538;-5.646;2023-04-06T01:08:08;7.15;;;3.70;;
69703;SDS011;56967;43.538;-5.646;2023-04-06T01:10:34;5.65;;;4.13;;
69703;SDS011;56967;43.538;-5.646;2023-04-06T01:13:00;8.23;;;4.15;;
69703;SDS011;56967;43.538;-5.646;2023-04-06T01:15:25;4.95;;;3.65;;
69703;SDS011;56967;43.538;-5.646;2023-04-06T01:17:53;7.05;;;3.92;;
69703;SDS011;56967;43.538;-5.646;2023-04-06T01:20:18;7.88;;;4.13;;
69703;SDS011;56967;43.538;-5.646;2023-04-06T01:22:44;5.68;;;3.92;;
69703;SDS011;56967;43.538;-5.646;2023-04-06T01:25:10;8.93;;;4.28;;
69703;SDS011;56967;43.538;-5.646;2023-04-06T01:27:35;9.55;;;4.55;;
69703;SDS011;56967;43.538;-5.646;2023-04-06T01:30:01;8.30;;;5.10;;
69703;SDS011;56967;43.538;-5.646;2023-04-06T01:32:27;6.25;;;4.93;;
69703;SDS011;56967;43.538;-5.646;2023-04-06T01:34:52;7.97;;;4.65;;
69703;SDS011;56967;43.538;-5.646;2023-04-06T01:37:19;7.63;;;4.53;;
69703;SDS011;56967;43.538;-5.646;2023-04-06T01:39:45;7.55;;;4.72;;
69703;SDS011;56967;43.538;-5.646;2023-04-06T01:42:11;7.20;;;4.72;;
69703;SDS011;56967;43.538;-5.646;2023-04-06T01:44:36;8.02;;;4.95;;
69703;SDS011;56967;43.538;-5.646;2023-04-06T01:47:02;8.93;;;5.18;;
69703;SDS011;56967;43.538;-5.646;2023-04-06T01:49:27;7.50;;;5.20;;
69703;SDS011;56967;43.538;-5.646;2023-04-06T01:51:53;7.50;;;5.00;;
69703;SDS011;56967;43.538;-5.646;2023-04-06T01:54:19;6.18;;;4.25;;
69703;SDS011;56967;43.538;-5.646;2023-04-06T01:56:45;10.45;;;4.18;;
69703;SDS011;56967;43.538;-5.646;2023-04-06T01:59:10;9.65;;;4.20;;
69703;SDS011;56967;43.538;-5.646;2023-04-06T02:01:36;9.13;;;4.68;;
69703;SDS011;56967;43.538;-5.646;2023-04-06T02:04:01;7.15;;;4.32;;
69703;SDS011;56967;43.538;-5.646;2023-04-06T02:06:27;7.80;;;4.30;;
69703;SDS011;56967;43.538;-5.646;2023-04-06T02:08:52;6.88;;;4.00;;
69703;SDS011;56967;43.538;-5.646;2023-04-06T02:11:18;7.55;;;4.30;;
69703;SDS011;56967;43.538;-5.646;2023-04-06T02:13:43;9.57;;;4.40;;
69703;SDS011;56967;43.538;-5.646;2023-04-06T02:16:09;7.20;;;4.28;;
69703;SDS011;56967;43.538;-5.646;2023-04-06T02:18:35;6.32;;;4.10;;
69703;SDS011;56967;43.538;-5.646;2023-04-06T02:21:00;6.97;;;4.18;;
69703;SDS011;56967;43.538;-5.646;2023-04-06T02:23:26;7.60;;;4.13;;
69703;SDS011;56967;43.538;-5.646;2023-04-06T02:25:51;5.60;;;4.05;;
69703;SDS011;56967;43.538;-5.646;2023-04-06T02:28:17;9.05;;;4.30;;
69703;SDS011;56967;43.538;-5.646;2023-04-06T02:30:42;6.78;;;4.68;;
69703;SDS011;56967;43.538;-5.646;2023-04-06T02:33:08;7.80;;;4.30;;
69703;SDS011;56967;43.538;-5.646;2023-04-06T02:35:33;7.93;;;4.20;;
69703;SDS011;56967;43.538;-5.646;2023-04-06T02:37:59;7.65;;;4.32;;
69703;SDS011;56967;43.538;-5.646;2023-04-06T02:40:24;8.05;;;4.78;;
69703;SDS011;56967;43.538;-5.646;2023-04-06T02:42:50;6.55;;;4.03;;
69703;SDS011;56967;43.538;-5.646;2023-04-06T02:45:15;9.48;;;4.60;;
69703;SDS011;56967;43.538;-5.646;2023-04-06T02:47:41;6.45;;;4.85;;
69703;SDS011;56967;43.538;-5.646;2023-04-06T02:50:07;6.70;;;4.28;;
69703;SDS011;56967;43.538;-5.646;2023-04-06T02:52:33;7.70;;;4.57;;
69703;SDS011;56967;43.538;-5.646;2023-04-06T02:54:58;6.05;;;4.50;;
69703;SDS011;56967;43.538;-5.646;2023-04-06T02:57:24;6.90;;;4.43;;
69703;SDS011;56967;43.538;-5.646;2023-04-06T02:59:50;7.80;;;4.28;;
69703;SDS011;56967;43.538;-5.646;2023-04-06T03:02:16;7.55;;;4.30;;
69703;SDS011;56967;43.538;-5.646;2023-04-06T03:04:42;7.47;;;4.60;;
69703;SDS011;56967;43.538;-5.646;2023-04-06T03:07:07;7.97;;;4.50;;
69703;SDS011;56967;43.538;-5.646;2023-04-06T03:09:33;10.57;;;5.07;;
69703;SDS011;56967;43.538;-5.646;2023-04-06T03:11:59;7.63;;;4.47;;
69703;SDS011;56967;43.538;-5.646;2023-04-06T03:14:25;7.47;;;4.72;;
69703;SDS011;56967;43.538;-5.646;2023-04-06T03:16:52;7.18;;;4.50;;
69703;SDS011;56967;43.538;-5.646;2023-04-06T03:19:17;6.38;;;4.60;;
69703;SDS011;56967;43.538;-5.646;2023-04-06T03:21:43;10.70;;;5.25;;
69703;SDS011;56967;43.538;-5.646;2023-04-06T03:24:08;7.72;;;5.90;;
69703;SDS011;56967;43.538;-5.646;2023-04-06T03:26:34;9.77;;;6.53;;
69703;SDS011;56967;43.538;-5.646;2023-04-06T03:29:00;12.25;;;5.40;;
69703;SDS011;56967;43.538;-5.646;2023-04-06T03:31:26;6.95;;;4.78;;
69703;SDS011;56967;43.538;-5.646;2023-04-06T03:33:51;6.55;;;4.20;;
69703;SDS011;56967;43.538;-5.646;2023-04-06T03:36:17;9.85;;;4.80;;
69703;SDS011;56967;43.538;-5.646;2023-04-06T03:38:42;8.23;;;4.55;;
69703;SDS011;56967;43.538;-5.646;2023-04-06T03:41:08;9.40;;;4.50;;
69703;SDS011;56967;43.538;-5.646;2023-04-06T03:43:33;9.88;;;4.82;;
69703;SDS011;56967;43.538;-5.646;2023-04-06T03:45:59;7.90;;;4.20;;
69703;SDS011;56967;43.538;-5.646;2023-04-06T03:48:24;7.07;;;4.05;;
69703;SDS011;56967;43.538;-5.646;2023-04-06T03:50:50;5.97;;;4.03;;
69703;SDS011;56967;43.538;-5.646;2023-04-06T03:53:15;6.63;;;4.30;;
69703;SDS011;56967;43.538;-5.646;2023-04-06T03:55:41;7.95;;;4.40;;
69703;SDS011;56967;43.538;-5.646;2023-04-06T03:58:06;11.60;;;4.50;;
69703;SDS011;56967;43.538;-5.646;2023-04-06T04:00:32;6.00;;;4.35;;
69703;SDS011;56967;43.538;-5.646;2023-04-06T04:02:58;8.77;;;4.05;;
69703;SDS011;56967;43.538;-5.646;2023-04-06T04:05:23;7.22;;;4.80;;
69703;SDS011;56967;43.538;-5.646;2023-04-06T04:07:50;9.27;;;4.60;;
69703;SDS011;56967;43.538;-5.646;2023-04-06T04:10:17;7.93;;;4.72;;
69703;SDS011;56967;43.538;-5.646;2023-04-06T04:12:42;9.32;;;4.72;;
69703;SDS011;56967;43.538;-5.646;2023-04-06T04:15:08;7.45;;;4.68;;
69703;SDS011;56967;43.538;-5.646;2023-04-06T04:17:34;7.85;;;5.10;;
69703;SDS011;56967;43.538;-5.646;2023-04-06T04:19:59;6.50;;;4.55;;
69703;SDS011;56967;43.538;-5.646;2023-04-06T04:22:25;8.70;;;4.60;;
69703;SDS011;56967;43.538;-5.646;2023-04-06T04:24:52;9.25;;;4.80;;
69703;SDS011;56967;43.538;-5.646;2023-04-06T04:27:18;7.65;;;5.00;;
69703;SDS011;56967;43.538;-5.646;2023-04-06T04:29:44;12.18;;;5.43;;
69703;SDS011;56967;43.538;-5.646;2023-04-06T04:32:10;6.95;;;4.70;;
69703;SDS011;56967;43.538;-5.646;2023-04-06T04:34:35;8.27;;;5.00;;
69703;SDS011;56967;43.538;-5.646;2023-04-06T04:37:01;8.52;;;5.53;;
69703;SDS011;56967;43.538;-5.646;2023-04-06T04:39:26;7.45;;;4.50;;
69703;SDS011;56967;43.538;-5.646;2023-04-06T04:41:52;9.00;;;5.00;;
69703;SDS011;56967;43.538;-5.646;2023-04-06T04:44:18;9.52;;;5.07;;
69703;SDS011;56967;43.538;-5.646;2023-04-06T04:46:44;9.43;;;5.03;;
69703;SDS011;56967;43.538;-5.646;2023-04-06T04:49:09;7.50;;;4.55;;
69703;SDS011;56967;43.538;-5.646;2023-04-06T04:51:35;7.75;;;4.72;;
69703;SDS011;56967;43.538;-5.646;2023-04-06T04:54:01;9.27;;;5.20;;
69703;SDS011;56967;43.538;-5.646;2023-04-06T04:56:26;11.45;;;5.18;;
69703;SDS011;56967;43.538;-5.646;2023-04-06T04:58:52;8.88;;;5.00;;
69703;SDS011;56967;43.538;-5.646;2023-04-06T05:01:18;9.10;;;4.93;;
69703;SDS011;56967;43.538;-5.646;2023-04-06T05:03:43;9.73;;;5.03;;
69703;SDS011;56967;43.538;-5.646;2023-04-06T05:06:09;5.85;;;4.45;;
69703;SDS011;56967;43.538;-5.646;2023-04-06T05:08:34;8.60;;;4.93;;
69703;SDS011;56967;43.538;-5.646;2023-04-06T05:11:00;8.60;;;5.07;;
69703;SDS011;56967;43.538;-5.646;2023-04-06T05:13:25;7.38;;;5.18;;
69703;SDS011;56967;43.538;-5.646;2023-04-06T05:15:51;6.80;;;4.93;;
69703;SDS011;56967;43.538;-5.646;2023-04-06T05:18:16;6.13;;;5.10;;
69703;SDS011;56967;43.538;-5.646;2023-04-06T05:20:42;7.28;;;4.68;;
69703;SDS011;56967;43.538;-5.646;2023-04-06T05:23:08;8.55;;;4.85;;
69703;SDS011;56967;43.538;-5.646;2023-04-06T05:25:34;7.75;;;4.95;;
69703;SDS011;56967;43.538;-5.646;2023-04-06T05:28:00;7.65;;;4.85;;
69703;SDS011;56967;43.538;-5.646;2023-04-06T05:30:26;9.00;;;4.80;;
69703;SDS011;56967;43.538;-5.646;2023-04-06T05:32:51;6.35;;;4.43;;
69703;SDS011;56967;43.538;-5.646;2023-04-06T05:35:17;7.68;;;4.80;;
69703;SDS011;56967;43.538;-5.646;2023-04-06T05:37:43;5.75;;;4.53;;
69703;SDS011;56967;43.538;-5.646;2023-04-06T05:40:09;8.38;;;4.88;;
69703;SDS011;56967;43.538;-5.646;2023-04-06T05:42:38;7.28;;;4.80;;
69703;SDS011;56967;43.538;-5.646;2023-04-06T05:45:07;7.07;;;4.82;;
69703;SDS011;56967;43.538;-5.646;2023-04-06T05:47:35;9.93;;;5.30;;
69703;SDS011;56967;43.538;-5.646;2023-04-06T05:50:01;7.95;;;5.18;;
69703;SDS011;56967;43.538;-5.646;2023-04-06T05:52:26;9.55;;;5.20;;
69703;SDS011;56967;43.538;-5.646;2023-04-06T05:54:53;9.32;;;5.20;;
69703;SDS011;56967;43.538;-5.646;2023-04-06T05:57:19;9.15;;;5.20;;
69703;SDS011;56967;43.538;-5.646;2023-04-06T05:59:44;7.78;;;4.82;;
69703;SDS011;56967;43.538;-5.646;2023-04-06T06:02:10;9.25;;;5.20;;
69703;SDS011;56967;43.538;-5.646;2023-04-06T06:04:35;12.07;;;5.55;;
69703;SDS011;56967;43.538;-5.646;2023-04-06T06:07:01;7.63;;;5.60;;
69703;SDS011;56967;43.538;-5.646;2023-04-06T06:09:27;11.63;;;5.50;;
69703;SDS011;56967;43.538;-5.646;2023-04-06T06:11:52;7.85;;;5.43;;
69703;SDS011;56967;43.538;-5.646;2023-04-06T06:14:18;10.88;;;5.32;;
69703;SDS011;56967;43.538;-5.646;2023-04-06T06:16:43;10.75;;;5.30;;
69703;SDS011;56967;43.538;-5.646;2023-04-06T06:19:09;8.40;;;5.53;;
69703;SDS011;56967;43.538;-5.646;2023-04-06T06:21:35;9.95;;;5.85;;
69703;SDS011;56967;43.538;-5.646;2023-04-06T06:24:01;6.80;;;4.80;;
69703;SDS011;56967;43.538;-5.646;2023-04-06T06:26:27;9.88;;;4.20;;
69703;SDS011;56967;43.538;-5.646;2023-04-06T06:28:52;7.28;;;4.05;;
69703;SDS011;56967;43.538;-5.646;2023-04-06T06:31:18;5.97;;;4.00;;
69703;SDS011;56967;43.538;-5.646;2023-04-06T06:33:47;8.98;;;3.60;;
69703;SDS011;56967;43.538;-5.646;2023-04-06T06:36:15;8.63;;;3.83;;
69703;SDS011;56967;43.538;-5.646;2023-04-06T06:38:42;7.05;;;3.50;;
69703;SDS011;56967;43.538;-5.646;2023-04-06T06:41:07;8.55;;;3.72;;
69703;SDS011;56967;43.538;-5.646;2023-04-06T06:43:33;5.43;;;3.40;;
69703;SDS011;56967;43.538;-5.646;2023-04-06T06:45:58;10.52;;;3.50;;
69703;SDS011;56967;43.538;-5.646;2023-04-06T06:48:24;10.25;;;3.83;;
69703;SDS011;56967;43.538;-5.646;2023-04-06T06:50:50;4.72;;;3.03;;
69703;SDS011;56967;43.538;-5.646;2023-04-06T06:53:15;5.22;;;3.25;;
69703;SDS011;56967;43.538;-5.646;2023-04-06T06:55:41;6.05;;;3.17;;
69703;SDS011;56967;43.538;-5.646;2023-04-06T06:58:09;5.97;;;3.30;;
69703;SDS011;56967;43.538;-5.646;2023-04-06T07:00:34;8.45;;;3.92;;
69703;SDS011;56967;43.538;-5.646;2023-04-06T07:03:00;6.50;;;3.50;;
69703;SDS011;56967;43.538;-5.646;2023-04-06T07:05:25;10.43;;;4.63;;
69703;SDS011;56967;43.538;-5.646;2023-04-06T07:07:51;6.43;;;3.63;;
69703;SDS011;56967;43.538;-5.646;2023-04-06T07:10:17;6.95;;;3.60;;
69703;SDS011;56967;43.538;-5.646;2023-04-06T07:12:42;6.88;;;3.75;;
69703;SDS011;56967;43.538;-5.646;2023-04-06T07:15:08;8.65;;;3.60;;
69703;SDS011;56967;43.538;-5.646;2023-04-06T07:17:34;6.30;;;3.63;;
69703;SDS011;56967;43.538;-5.646;2023-04-06T07:19:59;6.03;;;3.65;;
69703;SDS011;56967;43.538;-5.646;2023-04-06T07:22:25;6.40;;;3.80;;
69703;SDS011;56967;43.538;-5.646;2023-04-06T07:24:50;6.95;;;4.05;;
69703;SDS011;56967;43.538;-5.646;2023-04-06T07:27:16;5.47;;;3.55;;
69703;SDS011;56967;43.538;-5.646;2023-04-06T07:29:42;6.85;;;3.75;;
69703;SDS011;56967;43.538;-5.646;2023-04-06T07:32:07;7.80;;;3.50;;
69703;SDS011;56967;43.538;-5.646;2023-04-06T07:34:33;6.20;;;3.42;;
69703;SDS011;56967;43.538;-5.646;2023-04-06T07:36:58;5.85;;;3.20;;
69703;SDS011;56967;43.538;-5.646;2023-04-06T07:39:25;7.40;;;4.30;;
69703;SDS011;56967;43.538;-5.646;2023-04-06T07:41:52;11.05;;;4.10;;
69703;SDS011;56967;43.538;-5.646;2023-04-06T07:44:17;10.60;;;7.63;;
69703;SDS011;56967;43.538;-5.646;2023-04-06T07:46:43;6.72;;;4.38;;
69703;SDS011;56967;43.538;-5.646;2023-04-06T07:49:08;4.55;;;3.67;;
69703;SDS011;56967;43.538;-5.646;2023-04-06T07:51:37;6.45;;;4.15;;
69703;SDS011;56967;43.538;-5.646;2023-04-06T07:54:03;8.07;;;4.20;;
69703;SDS011;56967;43.538;-5.646;2023-04-06T07:56:29;7.20;;;4.85;;
69703;SDS011;56967;43.538;-5.646;2023-04-06T07:58:54;8.20;;;5.10;;
69703;SDS011;56967;43.538;-5.646;2023-04-06T08:01:23;24.92;;;7.20;;
69703;SDS011;56967;43.538;-5.646;2023-04-06T08:03:50;9.45;;;4.63;;
69703;SDS011;56967;43.538;-5.646;2023-04-06T08:06:16;8.18;;;4.50;;
69703;SDS011;56967;43.538;-5.646;2023-04-06T08:08:41;7.75;;;5.32;;
69703;SDS011;56967;43.538;-5.646;2023-04-06T08:11:07;6.90;;;5.15;;
69703;SDS011;56967;43.538;-5.646;2023-04-06T08:13:33;10.73;;;5.28;;
69703;SDS011;56967;43.538;-5.646;2023-04-06T08:15:59;8.23;;;5.20;;
69703;SDS011;56967;43.538;-5.646;2023-04-06T08:18:25;9.48;;;5.50;;
69703;SDS011;56967;43.538;-5.646;2023-04-06T08:20:51;11.13;;;6.68;;
69703;SDS011;56967;43.538;-5.646;2023-04-06T08:23:16;8.45;;;6.13;;
69703;SDS011;56967;43.538;-5.646;2023-04-06T08:25:42;11.40;;;7.95;;
69703;SDS011;56967;43.538;-5.646;2023-04-06T08:28:08;10.40;;;6.03;;
69703;SDS011;56967;43.538;-5.646;2023-04-06T08:30:34;8.68;;;6.35;;
69703;SDS011;56967;43.538;-5.646;2023-04-06T08:33:00;13.27;;;6.68;;
69703;SDS011;56967;43.538;-5.646;2023-04-06T08:35:26;8.13;;;6.10;;
69703;SDS011;56967;43.538;-5.646;2023-04-06T08:37:52;7.43;;;5.80;;
69703;SDS011;56967;43.538;-5.646;2023-04-06T08:40:18;6.35;;;5.25;;
69703;SDS011;56967;43.538;-5.646;2023-04-06T08:42:44;7.40;;;5.50;;
69703;SDS011;56967;43.538;-5.646;2023-04-06T08:45:15;7.85;;;6.00;;
69703;SDS011;56967;43.538;-5.646;2023-04-06T08:47:42;10.90;;;7.38;;
69703;SDS011;56967;43.538;-5.646;2023-04-06T08:50:08;9.88;;;5.20;;
69703;SDS011;56967;43.538;-5.646;2023-04-06T08:52:36;8.88;;;5.15;;
69703;SDS011;56967;43.538;-5.646;2023-04-06T08:55:03;7.85;;;4.88;;
69703;SDS011;56967;43.538;-5.646;2023-04-06T08:57:29;8.60;;;5.07;;
69703;SDS011;56967;43.538;-5.646;2023-04-06T08:59:56;10.55;;;5.18;;
69703;SDS011;56967;43.538;-5.646;2023-04-06T09:02:22;5.57;;;4.40;;
69703;SDS011;56967;43.538;-5.646;2023-04-06T09:04:48;7.43;;;3.60;;
69703;SDS011;56967;43.538;-5.646;2023-04-06T09:07:15;7.07;;;4.03;;
69703;SDS011;56967;43.538;-5.646;2023-04-06T09:09:41;8.90;;;3.70;;
69703;SDS011;56967;43.538;-5.646;2023-04-06T09:12:21;6.05;;;3.92;;
69703;SDS011;56967;43.538;-5.646;2023-04-06T09:14:51;6.63;;;4.00;;
69703;SDS011;56967;43.538;-5.646;2023-04-06T09:17:21;5.47;;;3.35;;
69703;SDS011;56967;43.538;-5.646;2023-04-06T09:19:47;8.38;;;3.40;;
69703;SDS011;56967;43.538;-5.646;2023-04-06T09:22:13;5.47;;;3.60;;
69703;SDS011;56967;43.538;-5.646;2023-04-06T09:24:52;6.63;;;3.40;;
69703;SDS011;56967;43.538;-5.646;2023-04-06T09:27:29;5.95;;;3.47;;
69703;SDS011;56967;43.538;-5.646;2023-04-06T09:32:45;6.32;;;3.30;;
69703;SDS011;56967;43.538;-5.646;2023-04-06T09:35:15;6.32;;;3.25;;
69703;SDS011;56967;43.538;-5.646;2023-04-06T09:37:42;6.38;;;3.28;;
69703;SDS011;56967;43.538;-5.646;2023-04-06T09:40:08;9.20;;;3.70;;
69703;SDS011;56967;43.538;-5.646;2023-04-06T09:42:34;7.93;;;4.05;;
69703;SDS011;56967;43.538;-5.646;2023-04-06T09:45:03;5.10;;;3.08;;
69703;SDS011;56967;43.538;-5.646;2023-04-06T09:47:33;7.22;;;3.50;;
69703;SDS011;56967;43.538;-5.646;2023-04-06T09:50:01;6.43;;;3.17;;
69703;SDS011;56967;43.538;-5.646;2023-04-06T09:52:31;6.57;;;3.10;;
69703;SDS011;56967;43.538;-5.646;2023-04-06T09:55:02;15.40;;;4.93;;
69703;SDS011;56967;43.538;-5.646;2023-04-06T09:57:31;10.70;;;4.57;;
69703;SDS011;56967;43.538;-5.646;2023-04-06T10:00:05;14.27;;;4.65;;
69703;SDS011;56967;43.538;-5.646;2023-04-06T10:08:09;11.98;;;3.72;;
69703;SDS011;56967;43.538;-5.646;2023-04-06T10:10:36;8.00;;;3.42;;
69703;SDS011;56967;43.538;-5.646;2023-04-06T10:13:05;8.52;;;3.15;;
69703;SDS011;56967;43.538;-5.646;2023-04-06T10:15:32;6.93;;;2.70;;
69703;SDS011;56967;43.538;-5.646;2023-04-06T10:17:59;8.63;;;3.28;;
69703;SDS011;56967;43.538;-5.646;2023-04-06T10:20:28;10.20;;;3.22;;
69703;SDS011;56967;43.538;-5.646;2023-04-06T10:23:03;10.27;;;2.85;;
69703;SDS011;56967;43.538;-5.646;2023-04-06T10:25:34;9.20;;;3.10;;
69703;SDS011;56967;43.538;-5.646;2023-04-06T10:28:09;8.02;;;3.00;;
69703;SDS011;56967;43.538;-5.646;2023-04-06T10:30:41;11.43;;;3.40;;
69703;SDS011;56967;43.538;-5.646;2023-04-06T10:33:18;10.02;;;3.10;;
69703;SDS011;56967;43.538;-5.646;2023-04-06T10:35:45;8.05;;;3.15;;
69703;SDS011;56967;43.538;-5.646;2023-04-06T10:38:11;7.65;;;2.80;;
69703;SDS011;56967;43.538;-5.646;2023-04-06T10:40:39;9.48;;;2.90;;
69703;SDS011;56967;43.538;-5.646;2023-04-06T10:45:38;7.80;;;2.85;;
69703;SDS011;56967;43.538;-5.646;2023-04-06T10:48:14;12.68;;;3.53;;
69703;SDS011;56967;43.538;-5.646;2023-04-06T10:50:40;5.75;;;3.00;;
69703;SDS011;56967;43.538;-5.646;2023-04-06T10:53:06;8.20;;;2.60;;
69703;SDS011;56967;43.538;-5.646;2023-04-06T10:55:31;11.25;;;3.05;;
69703;SDS011;56967;43.538;-5.646;2023-04-06T10:57:57;13.23;;;2.70;;
69703;SDS011;56967;43.538;-5.646;2023-04-06T11:00:23;5.47;;;2.60;;
69703;SDS011;56967;43.538;-5.646;2023-04-06T11:02:49;6.30;;;2.55;;
69703;SDS011;56967;43.538;-5.646;2023-04-06T11:05:14;7.35;;;2.80;;
69703;SDS011;56967;43.538;-5.646;2023-04-06T11:07:40;7.03;;;2.83;;
69703;SDS011;56967;43.538;-5.646;2023-04-06T11:10:07;10.13;;;3.08;;
69703;SDS011;56967;43.538;-5.646;2023-04-06T11:12:33;8.50;;;2.80;;
69703;SDS011;56967;43.538;-5.646;2023-04-06T11:15:00;5.43;;;2.70;;
69703;SDS011;56967;43.538;-5.646;2023-04-06T11:17:33;4.88;;;2.85;;
69703;SDS011;56967;43.538;-5.646;2023-04-06T11:20:03;7.93;;;2.83;;
69703;SDS011;56967;43.538;-5.646;2023-04-06T11:22:34;11.50;;;2.95;;
69703;SDS011;56967;43.538;-5.646;2023-04-06T11:25:06;11.02;;;3.10;;
69703;SDS011;56967;43.538;-5.646;2023-04-06T11:27:33;7.28;;;2.90;;
69703;SDS011;56967;43.538;-5.646;2023-04-06T11:30:00;8.70;;;2.70;;
69703;SDS011;56967;43.538;-5.646;2023-04-06T11:32:26;5.75;;;2.58;;
69703;SDS011;56967;43.538;-5.646;2023-04-06T11:34:52;5.72;;;2.78;;
69703;SDS011;56967;43.538;-5.646;2023-04-06T11:37:18;6.63;;;2.80;;
69703;SDS011;56967;43.538;-5.646;2023-04-06T11:39:50;7.95;;;2.72;;
69703;SDS011;56967;43.538;-5.646;2023-04-06T11:42:24;6.93;;;2.90;;
69703;SDS011;56967;43.538;-5.646;2023-04-06T11:44:51;6.78;;;2.50;;
69703;SDS011;56967;43.538;-5.646;2023-04-06T11:47:19;10.27;;;2.53;;
69703;SDS011;56967;43.538;-5.646;2023-04-06T11:49:45;8.88;;;2.78;;
69703;SDS011;56967;43.538;-5.646;2023-04-06T11:52:19;9.73;;;3.63;;
69703;SDS011;56967;43.538;-5.646;2023-04-06T11:54:49;6.07;;;2.42;;
69703;SDS011;56967;43.538;-5.646;2023-04-06T11:57:16;6.32;;;2.35;;
69703;SDS011;56967;43.538;-5.646;2023-04-06T11:59:43;9.38;;;2.80;;
69703;SDS011;56967;43.538;-5.646;2023-04-06T12:02:09;9.45;;;3.03;;
69703;SDS011;56967;43.538;-5.646;2023-04-06T12:04:35;4.50;;;2.70;;
69703;SDS011;56967;43.538;-5.646;2023-04-06T12:07:02;3.90;;;2.38;;
69703;SDS011;56967;43.538;-5.646;2023-04-06T12:09:28;12.98;;;2.90;;
69703;SDS011;56967;43.538;-5.646;2023-04-06T12:11:54;6.15;;;2.67;;
69703;SDS011;56967;43.538;-5.646;2023-04-06T12:14:20;4.35;;;2.35;;
69703;SDS011;56967;43.538;-5.646;2023-04-06T12:16:46;8.77;;;2.95;;
69703;SDS011;56967;43.538;-5.646;2023-04-06T12:19:12;9.57;;;3.03;;
69703;SDS011;56967;43.538;-5.646;2023-04-06T12:21:37;9.20;;;2.65;;
69703;SDS011;56967;43.538;-5.646;2023-04-06T12:24:06;8.95;;;2.58;;
69703;SDS011;56967;43.538;-5.646;2023-04-06T12:26:32;9.00;;;2.88;;
69703;SDS011;56967;43.538;-5.646;2023-04-06T12:28:58;3.58;;;2.60;;
69703;SDS011;56967;43.538;-5.646;2023-04-06T12:31:32;6.20;;;2.72;;
69703;SDS011;56967;43.538;-5.646;2023-04-06T12:33:59;4.85;;;2.80;;
69703;SDS011;56967;43.538;-5.646;2023-04-06T12:36:27;9.45;;;3.25;;
69703;SDS011;56967;43.538;-5.646;2023-04-06T12:38:52;8.77;;;3.00;;
69703;SDS011;56967;43.538;-5.646;2023-04-06T12:41:18;8.20;;;3.20;;
69703;SDS011;56967;43.538;-5.646;2023-04-06T12:43:44;5.70;;;2.92;;
69703;SDS011;56967;43.538;-5.646;2023-04-06T12:46:10;7.20;;;2.67;;
69703;SDS011;56967;43.538;-5.646;2023-04-06T12:48:36;6.90;;;3.05;;
69703;SDS011;56967;43.538;-5.646;2023-04-06T12:51:02;6.47;;;3.15;;
69703;SDS011;56967;43.538;-5.646;2023-04-06T12:53:32;6.07;;;2.95;;
69703;SDS011;56967;43.538;-5.646;2023-04-06T12:55:59;8.45;;;3.00;;
69703;SDS011;56967;43.538;-5.646;2023-04-06T12:58:25;8.43;;;3.00;;
69703;SDS011;56967;43.538;-5.646;2023-04-06T13:00:52;10.10;;;2.97;;
69703;SDS011;56967;43.538;-5.646;2023-04-06T13:03:18;7.63;;;3.15;;
69703;SDS011;56967;43.538;-5.646;2023-04-06T13:05:48;7.22;;;3.10;;
69703;SDS011;56967;43.538;-5.646;2023-04-06T13:08:15;7.10;;;3.22;;
69703;SDS011;56967;43.538;-5.646;2023-04-06T13:10:48;5.18;;;3.25;;
69703;SDS011;56967;43.538;-5.646;2023-04-06T13:13:15;9.57;;;3.50;;
69703;SDS011;56967;43.538;-5.646;2023-04-06T13:15:41;8.63;;;4.15;;
69703;SDS011;56967;43.538;-5.646;2023-04-06T13:18:07;9.25;;;3.22;;
69703;SDS011;56967;43.538;-5.646;2023-04-06T13:20:33;4.60;;;2.85;;
69703;SDS011;56967;43.538;-5.646;2023-04-06T13:22:59;7.72;;;3.17;;
69703;SDS011;56967;43.538;-5.646;2023-04-06T13:25:24;11.10;;;3.28;;
69703;SDS011;56967;43.538;-5.646;2023-04-06T13:27:50;5.28;;;3.40;;
69703;SDS011;56967;43.538;-5.646;2023-04-06T13:30:15;5.10;;;3.38;;
69703;SDS011;56967;43.538;-5.646;2023-04-06T13:32:41;6.78;;;2.88;;
69703;SDS011;56967;43.538;-5.646;2023-04-06T13:35:07;9.05;;;3.28;;
69703;SDS011;56967;43.538;-5.646;2023-04-06T13:37:33;11.18;;;2.90;;
69703;SDS011;56967;43.538;-5.646;2023-04-06T13:39:59;5.97;;;3.00;;
69703;SDS011;56967;43.538;-5.646;2023-04-06T13:42:25;5.43;;;3.42;;
69703;SDS011;56967;43.538;-5.646;2023-04-06T13:44:52;6.63;;;3.53;;
69703;SDS011;56967;43.538;-5.646;2023-04-06T13:47:18;9.52;;;3.03;;
69703;SDS011;56967;43.538;-5.646;2023-04-06T13:49:45;7.93;;;3.70;;
69703;SDS011;56967;43.538;-5.646;2023-04-06T13:52:12;7.90;;;3.13;;
69703;SDS011;56967;43.538;-5.646;2023-04-06T13:54:37;7.47;;;3.40;;
69703;SDS011;56967;43.538;-5.646;2023-04-06T13:57:03;10.63;;;2.97;;
69703;SDS011;56967;43.538;-5.646;2023-04-06T13:59:34;6.70;;;3.08;;
69703;SDS011;56967;43.538;-5.646;2023-04-06T14:02:00;4.63;;;2.72;;
69703;SDS011;56967;43.538;-5.646;2023-04-06T14:04:30;4.50;;;2.72;;
69703;SDS011;56967;43.538;-5.646;2023-04-06T14:06:56;4.57;;;2.42;;
69703;SDS011;56967;43.538;-5.646;2023-04-06T14:09:22;3.92;;;1.83;;
69703;SDS011;56967;43.538;-5.646;2023-04-06T14:11:48;5.18;;;1.45;;
69703;SDS011;56967;43.538;-5.646;2023-04-06T14:14:15;4.25;;;1.65;;
69703;SDS011;56967;43.538;-5.646;2023-04-06T14:16:41;4.82;;;2.00;;
69703;SDS011;56967;43.538;-5.646;2023-04-06T14:19:14;2.70;;;1.52;;
69703;SDS011;56967;43.538;-5.646;2023-04-06T14:21:42;5.03;;;1.95;;
69703;SDS011;56967;43.538;-5.646;2023-04-06T14:24:09;3.33;;;1.48;;
69703;SDS011;56967;43.538;-5.646;2023-04-06T14:26:35;2.65;;;1.50;;
69703;SDS011;56967;43.538;-5.646;2023-04-06T14:29:02;4.40;;;1.70;;
69703;SDS011;56967;43.538;-5.646;2023-04-06T14:31:29;3.50;;;1.70;;
69703;SDS011;56967;43.538;-5.646;2023-04-06T14:33:55;2.95;;;1.60;;
69703;SDS011;56967;43.538;-5.646;2023-04-06T14:36:21;5.90;;;1.80;;
69703;SDS011;56967;43.538;-5.646;2023-04-06T14:38:47;2.30;;;1.40;;
69703;SDS011;56967;43.538;-5.646;2023-04-06T14:41:20;2.78;;;1.50;;